createdAt,value
2023-05-14T00:03:09.064Z,10.3
2023-05-14T00:13:11.126Z,10.1
2023-05-14T00:23:13.102Z,10
2023-05-14T00:33:15.583Z,9.8
2023-05-14T00:43:18.141Z,9.7
2023-05-14T00:53:20.670Z,9.6
2023-05-14T01:13:25.245Z,9.4
2023-05-14T01:33:29.338Z,9.2
2023-05-14T01:53:33.384Z,9.1
2023-05-14T02:13:38.275Z,8.7
2023-05-14T02:33:42.618Z,8.7
2023-05-14T02:53:46.381Z,8.6
2023-05-14T03:13:50.742Z,8.3
2023-05-14T04:24:05.367Z,8.1
2023-05-14T04:44:09.891Z,8.5
2023-05-14T06:44:34.778Z,12.2
2023-05-14T07:44:46.520Z,14.9
2023-05-14T07:54:50.560Z,15.4
2023-05-14T08:04:51.182Z,15.5
2023-05-14T08:14:53.768Z,15.9
2023-05-14T08:24:55.727Z,16.3
2023-05-14T08:34:57.514Z,17
2023-05-14T08:45:06.194Z,17.3
2023-05-14T08:55:08.480Z,17.5
2023-05-14T09:45:19.071Z,17.9
2023-05-14T09:55:21.107Z,18.3
2023-05-14T10:05:30.494Z,18.3
2023-05-14T10:15:25.221Z,18.5
2023-05-14T10:25:26.873Z,18.7
2023-05-14T10:35:29.195Z,19.2
2023-05-14T10:45:31.253Z,19.2
2023-05-14T10:55:33.461Z,19.2
2023-05-14T11:05:35.855Z,19.6
2023-05-14T11:15:37.603Z,19.8
2023-05-14T11:25:39.960Z,20
2023-05-14T11:35:42.012Z,19.5
2023-05-14T11:45:44.448Z,20.3
2023-05-14T11:55:46.574Z,20.3
2023-05-14T12:05:48.309Z,20.3
2023-05-14T12:45:58.114Z,21.6
2023-05-14T12:56:00.076Z,21.2
2023-05-14T13:36:08.222Z,20.9
2023-05-14T13:46:10.375Z,21.5
2023-05-14T13:56:12.420Z,21.1
2023-05-14T14:06:21.134Z,21.2
2023-05-14T14:16:23.085Z,21
2023-05-14T14:26:25.181Z,20.9
2023-05-14T14:36:26.877Z,20.8
2023-05-14T14:46:29.260Z,20.9
2023-05-14T15:06:33.567Z,20.5
2023-05-14T15:16:36.114Z,20.7
2023-05-14T15:26:38.551Z,20.3
2023-05-14T15:36:33.235Z,20.4
2023-05-14T15:46:35.869Z,20.4
2023-05-14T15:56:37.550Z,20.3
2023-05-14T16:06:39.503Z,20.3
2023-05-14T16:16:42.087Z,20.1
2023-05-14T16:26:44.282Z,20.1
2023-05-14T16:36:46.092Z,19.9
2023-05-14T16:46:47.878Z,20.1
2023-05-14T16:56:50.169Z,19.8
2023-05-14T17:06:52.694Z,19.8
2023-05-14T17:16:54.527Z,19.8
2023-05-14T17:26:56.347Z,19.6
2023-05-14T17:36:58.304Z,19.5
2023-05-14T17:47:00.523Z,19.3
2023-05-14T17:57:02.459Z,19.1
2023-05-14T18:07:04.310Z,18.9
2023-05-14T18:17:06.856Z,18.5
2023-05-14T18:27:08.783Z,18.2
2023-05-14T18:37:10.533Z,18
2023-05-14T18:47:12.667Z,17.7
2023-05-14T19:07:17.699Z,17.3
2023-05-14T19:17:20.650Z,17
2023-05-14T19:27:22.217Z,16.9
2023-05-14T19:37:24.231Z,17.1
2023-05-14T19:47:25.958Z,16.7
2023-05-14T19:57:27.818Z,16.6
2023-05-14T20:07:29.711Z,16.5
2023-05-14T20:17:32.010Z,16.3
2023-05-14T20:27:34.093Z,16
2023-05-14T20:47:39.081Z,15.4
2023-05-14T20:57:41.380Z,15.2
2023-05-14T21:07:43.890Z,15.1
2023-05-14T21:17:46.075Z,15
2023-05-14T21:27:48.332Z,14.9
2023-05-14T21:37:50.425Z,14.6
2023-05-14T21:57:55.320Z,14.3
2023-05-14T22:07:57.685Z,14.2
2023-05-14T22:18:00.141Z,13.9
2023-05-14T22:28:02.595Z,13.8
2023-05-14T22:38:04.257Z,13.5
2023-05-14T22:48:06.149Z,13.2
2023-05-14T22:58:08.188Z,13.2
2023-05-14T23:08:10.147Z,12.9
2023-05-14T23:18:12.117Z,12.5
2023-05-14T23:28:14.224Z,12.3
2023-05-14T23:38:16.017Z,12.1
2023-05-14T23:48:18.188Z,12.1
2023-05-14T23:58:19.877Z,11.9
